Terminal Aerodrome Forecast
Issued by NWS

Home | Current Version | Previous Version | Text Only | Print | Product List | Glossary On
Versions: 1 2 3 4 5 6 7 8 9 10 11 12 13 14
727
FTUS41 KPBZ 280539
TAFBVI
TAF
KBVI 280539Z 2806/2906 00000KT P6SM BKN070
     FM281800 24003KT P6SM VCSH BKN050
      AMD NOT SKED TIL 281200=

USA.gov is the U.S. government's official web portal to all federal, state and local government web resources and services.